createdAt,value
2019-04-10T00:01:17.383Z,6.83
2019-04-10T00:03:48.303Z,7.90
2019-04-10T00:06:18.680Z,7.80
2019-04-10T00:08:48.866Z,7.60
2019-04-10T00:11:19.266Z,7.40
2019-04-10T00:13:49.309Z,7.07
2019-04-10T00:16:20.905Z,7.63
2019-04-10T00:18:54.525Z,14.17
2019-04-10T00:21:25.229Z,10.43
2019-04-10T00:23:55.638Z,8.47
2019-04-10T00:26:26.126Z,8.97
2019-04-10T00:28:56.475Z,8.17
2019-04-10T00:31:27.076Z,9.40
2019-04-10T00:33:57.147Z,8.90
2019-04-10T00:36:28.775Z,9.00
2019-04-10T00:38:59.493Z,9.60
2019-04-10T00:41:30.304Z,9.10
2019-04-10T00:44:01.470Z,8.27
2019-04-10T00:46:32.547Z,8.60
2019-04-10T00:49:02.718Z,8.33
2019-04-10T00:51:33.199Z,8.20
2019-04-10T00:54:03.251Z,8.20
2019-04-10T00:56:34.726Z,8.10
2019-04-10T00:59:05.981Z,7.77
2019-04-10T01:01:37.549Z,7.87
2019-04-10T01:04:08.058Z,9.07
2019-04-10T01:06:38.599Z,7.97
2019-04-10T01:09:10.649Z,9.20
2019-04-10T01:11:41.415Z,8.57
2019-04-10T01:14:11.903Z,9.13
2019-04-10T01:16:42.121Z,8.73
2019-04-10T01:19:12.257Z,9.10
2019-04-10T01:21:42.374Z,8.40
2019-04-10T01:24:13.179Z,9.17
2019-04-10T01:26:43.391Z,8.63
2019-04-10T01:29:13.483Z,9.10
2019-04-10T01:31:43.599Z,9.20
2019-04-10T01:34:13.815Z,9.77
2019-04-10T01:36:44.343Z,9.47
2019-04-10T01:39:22.323Z,9.77
2019-04-10T01:41:52.628Z,9.37
2019-04-10T01:44:23.202Z,9.50
2019-04-10T01:46:53.474Z,9.13
2019-04-10T01:49:24.087Z,9.03
2019-04-10T01:51:55.142Z,9.80
2019-04-10T01:54:26.973Z,9.60
2019-04-10T01:56:57.750Z,9.50
2019-04-10T01:59:30.575Z,8.97
2019-04-10T02:02:09.500Z,10.27
2019-04-10T02:04:39.909Z,9.20
2019-04-10T02:07:10.158Z,10.60
2019-04-10T02:09:40.654Z,10.13
2019-04-10T02:12:10.788Z,9.87
2019-04-10T02:14:40.966Z,10.70
2019-04-10T02:17:11.186Z,8.87
2019-04-10T02:19:42.662Z,9.73
2019-04-10T02:22:14.122Z,9.13
2019-04-10T02:24:45.466Z,9.20
2019-04-10T02:27:16.218Z,9.60
2019-04-10T02:29:48.109Z,9.30
2019-04-10T02:32:18.946Z,10.23
2019-04-10T02:34:50.662Z,9.60
2019-04-10T02:37:22.904Z,8.80
2019-04-10T02:39:57.828Z,9.53
2019-04-10T02:42:26.811Z,9.50
2019-04-10T02:44:59.477Z,9.53
2019-04-10T02:47:30.675Z,9.27
2019-04-10T02:50:03.680Z,9.20
2019-04-10T02:52:35.049Z,9.80
2019-04-10T02:55:07.414Z,10.07
2019-04-10T02:57:39.079Z,9.57
2019-04-10T03:00:11.033Z,9.07
2019-04-10T03:02:42.099Z,8.63
2019-04-10T03:05:13.690Z,8.80
2019-04-10T03:07:46.378Z,8.83
2019-04-10T03:10:25.294Z,9.03
2019-04-10T03:12:49.141Z,10.03
2019-04-10T03:15:19.981Z,10.30
2019-04-10T03:17:50.467Z,10.10
2019-04-10T03:20:20.606Z,10.40
2019-04-10T03:22:51.395Z,10.97
2019-04-10T03:25:21.606Z,11.00
2019-04-10T03:27:52.556Z,11.07
2019-04-10T03:30:23.647Z,12.23
2019-04-10T03:33:23.881Z,12.27
2019-04-10T03:35:57.059Z,12.07
2019-04-10T03:38:27.886Z,13.47
2019-04-10T03:40:58.045Z,13.30
2019-04-10T03:43:28.267Z,13.57
2019-04-10T03:45:59.175Z,13.80
2019-04-10T03:48:31.371Z,13.33
2019-04-10T03:51:01.759Z,14.40
2019-04-10T03:53:32.100Z,13.87
2019-04-10T03:56:02.318Z,14.03
2019-04-10T03:58:33.587Z,13.50
2019-04-10T04:01:04.823Z,14.33
2019-04-10T04:03:35.268Z,14.50
2019-04-10T04:06:06.929Z,14.13
2019-04-10T04:08:37.485Z,14.87
2019-04-10T04:11:07.551Z,15.83
2019-04-10T04:13:37.733Z,16.10
2019-04-10T04:16:07.382Z,15.67
2019-04-10T04:18:37.567Z,15.83
2019-04-10T04:21:07.748Z,15.93
2019-04-10T04:23:39.877Z,16.13
2019-04-10T04:26:10.621Z,16.67
2019-04-10T04:28:41.830Z,16.37
2019-04-10T04:31:12.865Z,15.97
2019-04-10T04:33:44.600Z,15.40
2019-04-10T04:36:24.614Z,17.07
2019-04-10T04:38:55.174Z,16.87
2019-04-10T04:41:27.381Z,17.47
2019-04-10T04:43:57.703Z,15.90
2019-04-10T04:46:30.313Z,17.30
2019-04-10T04:49:00.614Z,16.97
2019-04-10T04:51:30.828Z,17.53
2019-04-10T04:54:01.039Z,16.70
2019-04-10T04:56:31.728Z,18.30
2019-04-10T04:59:02.052Z,18.03
2019-04-10T05:01:32.253Z,17.93
2019-04-10T05:04:02.502Z,17.40
2019-04-10T05:06:35.305Z,17.57
2019-04-10T05:09:07.924Z,17.73
2019-04-10T05:11:40.188Z,17.37
2019-04-10T05:14:11.069Z,17.13
2019-04-10T05:16:41.646Z,16.37
2019-04-10T05:19:12.264Z,16.57
2019-04-10T05:21:43.645Z,15.13
2019-04-10T05:24:16.203Z,16.40
2019-04-10T05:26:46.954Z,15.50
2019-04-10T05:29:18.220Z,17.17
2019-04-10T05:31:48.970Z,16.87
2019-04-10T05:34:19.898Z,17.73
2019-04-10T05:36:51.254Z,17.30
2019-04-10T05:39:22.480Z,16.17
2019-04-10T05:41:53.292Z,17.03
2019-04-10T05:44:23.659Z,17.13
2019-04-10T05:46:57.017Z,17.43
2019-04-10T05:49:27.281Z,17.83
2019-04-10T05:51:57.791Z,17.20
2019-04-10T05:54:28.073Z,19.40
2019-04-10T05:56:58.986Z,18.60
2019-04-10T05:59:30.120Z,18.73
2019-04-10T06:02:01.084Z,18.27
2019-04-10T06:04:31.660Z,18.47
2019-04-10T06:07:03.016Z,18.00
2019-04-10T06:09:36.524Z,18.63
2019-04-10T06:12:07.200Z,18.83
2019-04-10T06:14:38.056Z,19.03
2019-04-10T06:17:08.339Z,18.30
2019-04-10T06:19:38.973Z,18.80
2019-04-10T06:22:10.051Z,19.40
2019-04-10T06:24:42.498Z,19.97
2019-04-10T06:27:12.335Z,18.97
2019-04-10T06:29:44.583Z,20.10
2019-04-10T06:32:15.009Z,19.20
2019-04-10T06:34:46.069Z,20.23
2019-04-10T06:37:16.412Z,20.60
2019-04-10T06:39:47.399Z,19.97
2019-04-10T06:42:18.968Z,18.90
2019-04-10T06:44:50.224Z,19.10
2019-04-10T06:47:20.726Z,19.40
2019-04-10T06:49:50.987Z,20.70
2019-04-10T06:52:21.161Z,19.17
2019-04-10T06:54:51.326Z,19.20
2019-04-10T06:57:21.527Z,18.50
2019-04-10T06:59:52.396Z,18.90
2019-04-10T07:02:27.833Z,19.23
2019-04-10T07:04:56.585Z,19.60
2019-04-10T07:07:42.301Z,19.30
2019-04-10T07:10:00.025Z,19.87
2019-04-10T07:12:34.075Z,20.53
2019-04-10T07:15:05.333Z,19.57
2019-04-10T07:17:40.615Z,19.30
2019-04-10T07:20:10.417Z,19.30
2019-04-10T07:22:46.513Z,19.70
2019-04-10T07:25:15.375Z,19.73
2019-04-10T07:27:58.368Z,19.57
2019-04-10T07:30:29.869Z,20.23
2019-04-10T07:33:02.023Z,19.87
2019-04-10T07:35:34.343Z,19.07
2019-04-10T07:38:05.615Z,19.60
2019-04-10T07:40:38.620Z,20.43
2019-04-10T07:43:09.306Z,20.00
2019-04-10T07:45:39.502Z,19.50
2019-04-10T07:48:10.756Z,20.87
2019-04-10T07:50:43.986Z,20.13
2019-04-10T07:53:12.795Z,19.40
2019-04-10T07:55:57.507Z,19.67
2019-04-10T07:58:17.387Z,19.17
2019-04-10T08:00:47.542Z,19.07
2019-04-10T08:03:19.161Z,18.70
2019-04-10T08:05:50.274Z,18.63
2019-04-10T08:08:21.466Z,18.80
2019-04-10T08:10:52.917Z,19.53
2019-04-10T08:13:28.583Z,20.30
2019-04-10T08:15:59.319Z,20.27
2019-04-10T08:18:31.576Z,20.73
2019-04-10T08:21:02.917Z,18.90
2019-04-10T08:23:33.914Z,18.10
2019-04-10T08:26:08.147Z,17.47
2019-04-10T08:28:38.709Z,17.70
2019-04-10T08:31:09.141Z,18.80
2019-04-10T08:33:39.300Z,19.00
2019-04-10T08:36:10.895Z,19.63
2019-04-10T08:38:42.123Z,17.17
2019-04-10T08:41:12.916Z,18.30
2019-04-10T08:43:43.539Z,17.77
2019-04-10T08:46:13.914Z,19.33
2019-04-10T08:48:44.466Z,17.40
2019-04-10T08:51:14.968Z,19.10
2019-04-10T08:53:45.300Z,19.47
2019-04-10T08:56:16.249Z,17.47
2019-04-10T08:58:48.326Z,18.37
2019-04-10T09:01:20.971Z,17.40
2019-04-10T09:03:52.477Z,17.90
2019-04-10T09:06:23.117Z,16.70
2019-04-10T09:08:53.516Z,17.37
2019-04-10T09:11:26.915Z,18.07
2019-04-10T09:13:55.571Z,16.77
2019-04-10T09:16:26.712Z,16.30
2019-04-10T09:18:57.887Z,16.43
2019-04-10T09:21:29.879Z,16.13
2019-04-10T09:24:00.699Z,16.93
2019-04-10T09:26:31.094Z,16.50
2019-04-10T09:29:02.458Z,16.27
2019-04-10T09:31:33.535Z,15.53
2019-04-10T09:34:03.785Z,16.20
2019-04-10T09:36:33.873Z,15.43
2019-04-10T09:39:09.514Z,15.50
2019-04-10T09:41:39.358Z,16.67
2019-04-10T09:44:10.313Z,15.63
2019-04-10T09:46:40.885Z,14.90
2019-04-10T09:49:12.290Z,14.40
2019-04-10T09:51:42.914Z,15.53
2019-04-10T09:54:13.375Z,15.50
2019-04-10T09:56:44.212Z,14.70
2019-04-10T09:59:14.383Z,15.93
2019-04-10T10:01:44.583Z,15.03
2019-04-10T10:04:17.285Z,15.10
2019-04-10T10:06:49.370Z,15.37
2019-04-10T10:09:19.727Z,14.73
2019-04-10T10:11:51.288Z,14.30
2019-04-10T10:14:22.988Z,14.20
2019-04-10T10:16:53.744Z,14.50
2019-04-10T10:19:24.033Z,13.77
2019-04-10T10:21:54.344Z,15.20
2019-04-10T10:24:24.670Z,15.70
2019-04-10T10:26:57.647Z,14.93
2019-04-10T10:29:28.112Z,15.43
2019-04-10T10:31:58.235Z,15.13
2019-04-10T10:34:30.211Z,14.60
2019-04-10T10:37:03.610Z,15.13
2019-04-10T10:39:33.467Z,14.73
2019-04-10T10:42:05.490Z,15.40
2019-04-10T10:44:36.406Z,14.53
2019-04-10T10:47:08.255Z,15.20
2019-04-10T10:49:39.001Z,15.67
2019-04-10T10:52:11.142Z,14.30
2019-04-10T10:54:41.671Z,14.67
2019-04-10T10:57:13.585Z,14.73
2019-04-10T10:59:43.976Z,15.10
2019-04-10T11:02:15.169Z,14.00
2019-04-10T11:04:45.674Z,14.50
2019-04-10T11:07:18.603Z,14.43
2019-04-10T11:09:53.075Z,15.23
2019-04-10T11:12:26.351Z,14.93
2019-04-10T11:14:59.741Z,13.97
2019-04-10T11:17:31.598Z,13.70
2019-04-10T11:20:02.433Z,13.77
2019-04-10T11:22:42.480Z,12.00
2019-04-10T11:25:26.129Z,11.83
2019-04-10T11:28:00.209Z,12.63
2019-04-10T11:30:36.840Z,12.07
2019-04-10T11:33:08.531Z,13.05
2019-04-10T11:35:41.472Z,12.23
2019-04-10T11:38:13.462Z,11.83
2019-04-10T11:40:58.236Z,8.13
2019-04-10T11:43:27.751Z,8.10
2019-04-10T11:46:02.673Z,9.20
2019-04-10T11:48:36.648Z,9.00
2019-04-10T11:51:10.100Z,9.30
2019-04-10T11:53:45.390Z,9.80
2019-04-10T11:56:17.527Z,8.83
2019-04-10T11:58:53.784Z,9.23
2019-04-10T12:01:21.622Z,6.70
2019-04-10T12:03:53.972Z,7.00
2019-04-10T12:06:25.137Z,6.50
2019-04-10T12:11:26.790Z,7.33
2019-04-10T12:13:58.832Z,7.50
2019-04-10T12:16:29.645Z,7.37
2019-04-10T12:19:03.158Z,7.63
2019-04-10T12:21:35.065Z,8.03
2019-04-10T12:24:06.026Z,7.23
2019-04-10T12:26:36.513Z,6.57
2019-04-10T12:29:08.944Z,6.97
2019-04-10T12:31:39.770Z,7.37
2019-04-10T12:34:18.180Z,7.97
2019-04-10T12:36:53.400Z,8.20
2019-04-10T12:39:24.642Z,8.87
2019-04-10T12:41:55.439Z,8.97
2019-04-10T12:44:27.954Z,8.63
2019-04-10T12:46:59.537Z,8.73
2019-04-10T12:49:31.950Z,8.93
2019-04-10T12:52:02.672Z,8.83
2019-04-10T12:54:33.471Z,7.40
2019-04-10T12:57:06.374Z,7.60
2019-04-10T12:59:36.724Z,7.43
2019-04-10T13:02:10.466Z,7.83
2019-04-10T13:04:40.734Z,8.97
2019-04-10T13:07:13.634Z,7.00
2019-04-10T13:09:44.279Z,7.37
2019-04-10T13:12:15.293Z,6.30
2019-04-10T13:14:46.511Z,5.90
2019-04-10T13:17:16.639Z,5.47
2019-04-10T13:19:47.268Z,6.30
2019-04-10T13:22:17.997Z,6.63
2019-04-10T13:24:48.548Z,6.60
2019-04-10T13:27:18.838Z,6.90
2019-04-10T13:29:48.945Z,6.50
2019-04-10T13:32:23.396Z,6.00
2019-04-10T13:34:53.730Z,5.97
2019-04-10T13:37:24.115Z,5.40
2019-04-10T13:39:55.102Z,6.10
2019-04-10T13:42:25.198Z,6.50
2019-04-10T13:44:55.892Z,6.53
2019-04-10T13:47:29.085Z,8.83
2019-04-10T13:50:00.060Z,10.73
2019-04-10T13:52:30.213Z,11.67
2019-04-10T13:55:01.062Z,10.53
2019-04-10T13:57:31.439Z,14.00
2019-04-10T14:00:01.813Z,13.43
2019-04-10T14:02:37.731Z,16.80
2019-04-10T14:05:11.717Z,20.00
2019-04-10T14:07:42.329Z,20.57
2019-04-10T14:10:14.531Z,22.00
2019-04-10T14:12:45.354Z,21.90
2019-04-10T14:15:16.095Z,21.70
2019-04-10T14:17:48.473Z,21.70
2019-04-10T14:20:21.946Z,21.53
2019-04-10T14:23:17.998Z,22.70
2019-04-10T14:26:12.267Z,21.90
2019-04-10T14:28:43.071Z,16.17
2019-04-10T14:31:32.173Z,16.37
2019-04-10T14:34:03.827Z,18.67
2019-04-10T14:36:35.927Z,22.33
2019-04-10T14:39:17.867Z,21.07
2019-04-10T14:41:46.979Z,24.33
2019-04-10T14:44:17.939Z,25.07
2019-04-10T14:46:48.115Z,27.13
2019-04-10T14:49:18.768Z,26.10
2019-04-10T14:51:49.447Z,26.97
2019-04-10T14:54:20.222Z,25.67
2019-04-10T14:56:51.208Z,25.47
2019-04-10T14:59:22.027Z,25.30
2019-04-10T15:01:52.631Z,27.33
2019-04-10T15:04:24.823Z,27.17
2019-04-10T15:06:55.685Z,26.97
2019-04-10T15:09:26.324Z,27.97
2019-04-10T15:11:57.293Z,29.43
2019-04-10T15:14:28.035Z,29.87
2019-04-10T15:17:01.723Z,29.43
2019-04-10T15:19:32.202Z,30.73
2019-04-10T15:22:03.217Z,30.93
2019-04-10T15:24:33.389Z,31.40
2019-04-10T15:27:05.895Z,31.07
2019-04-10T15:29:36.434Z,31.70
2019-04-10T15:32:07.082Z,31.80
2019-04-10T15:34:37.500Z,32.50
2019-04-10T15:37:08.885Z,31.53
2019-04-10T15:39:40.650Z,25.80
2019-04-10T15:42:12.041Z,23.80
2019-04-10T15:44:42.798Z,23.50
2019-04-10T15:47:19.676Z,23.83
2019-04-10T15:49:45.807Z,25.87
2019-04-10T15:52:16.022Z,27.07
2019-04-10T15:54:47.852Z,26.30
2019-04-10T15:57:18.492Z,27.40
2019-04-10T15:59:48.741Z,28.17
2019-04-10T16:02:19.579Z,26.33
2019-04-10T16:04:51.134Z,21.40
2019-04-10T16:07:22.489Z,19.43
2019-04-10T16:09:56.345Z,17.13
2019-04-10T16:12:27.017Z,18.43
2019-04-10T16:14:57.593Z,18.90
2019-04-10T16:17:52.751Z,19.57
2019-04-10T16:20:29.405Z,20.57
2019-04-10T16:23:27.466Z,21.03
2019-04-10T16:25:56.496Z,19.97
2019-04-10T16:28:27.037Z,21.17
2019-04-10T16:30:59.161Z,19.67
2019-04-10T16:33:29.602Z,19.80
2019-04-10T16:36:01.078Z,19.07
2019-04-10T16:38:31.348Z,18.57
2019-04-10T16:41:02.730Z,19.10
2019-04-10T16:43:33.042Z,19.20
2019-04-10T16:46:04.820Z,19.10
2019-04-10T16:48:35.849Z,19.23
2019-04-10T16:51:06.635Z,18.80
2019-04-10T16:53:36.894Z,19.77
2019-04-10T16:56:07.413Z,18.83
2019-04-10T16:58:41.145Z,21.00
2019-04-10T17:01:12.563Z,22.27
2019-04-10T17:03:44.130Z,20.60
2019-04-10T17:06:14.720Z,23.33
2019-04-10T17:08:45.934Z,23.17
2019-04-10T17:11:16.750Z,24.17
2019-04-10T17:13:47.074Z,23.63
2019-04-10T17:16:17.738Z,22.30
2019-04-10T17:18:49.545Z,23.37
2019-04-10T17:21:19.999Z,23.03
2019-04-10T17:23:51.105Z,25.10
2019-04-10T17:26:22.568Z,24.23
2019-04-10T17:28:53.465Z,23.97
2019-04-10T17:31:24.609Z,24.00
2019-04-10T17:33:54.845Z,25.10
2019-04-10T17:36:27.109Z,24.60
2019-04-10T17:38:58.688Z,24.60
2019-04-10T17:41:29.187Z,25.03
2019-04-10T17:44:01.119Z,24.83
2019-04-10T17:46:31.483Z,26.20
2019-04-10T17:49:03.129Z,27.43
2019-04-10T17:51:34.245Z,26.63
2019-04-10T17:54:06.324Z,27.57
2019-04-10T17:56:36.655Z,28.37
2019-04-10T17:59:07.874Z,28.80
2019-04-10T18:01:38.987Z,28.30
2019-04-10T18:04:11.676Z,30.20
2019-04-10T18:06:44.518Z,29.97
2019-04-10T18:09:14.006Z,30.03
2019-04-10T18:11:44.300Z,30.53
2019-04-10T18:14:15.317Z,31.40
2019-04-10T18:16:46.359Z,31.47
2019-04-10T18:19:17.098Z,31.23
2019-04-10T18:21:47.881Z,32.47
2019-04-10T18:24:19.999Z,32.03
2019-04-10T18:26:52.299Z,31.73
2019-04-10T18:29:23.262Z,33.90
2019-04-10T18:31:54.321Z,33.47
2019-04-10T18:34:24.934Z,33.10
2019-04-10T18:36:55.202Z,33.70
2019-04-10T18:39:26.148Z,34.23
2019-04-10T18:41:59.294Z,35.23
2019-04-10T18:44:29.087Z,34.53
2019-04-10T18:46:59.219Z,35.77
2019-04-10T18:49:29.722Z,34.33
2019-04-10T18:52:00.519Z,34.33
2019-04-10T18:54:31.980Z,35.43
2019-04-10T18:57:02.274Z,35.90
2019-04-10T18:59:56.686Z,34.90
2019-04-10T19:02:55.061Z,35.33
2019-04-10T19:05:29.941Z,36.40
2019-04-10T19:08:00.820Z,35.40
2019-04-10T19:10:31.256Z,35.27
2019-04-10T19:13:01.896Z,36.27
2019-04-10T19:15:32.843Z,36.13
2019-04-10T19:18:03.626Z,36.90
2019-04-10T19:20:35.707Z,37.47
2019-04-10T19:23:06.760Z,36.80
2019-04-10T19:25:38.804Z,35.67
2019-04-10T19:28:09.188Z,37.53
2019-04-10T19:30:43.561Z,38.07
2019-04-10T19:33:14.103Z,38.37
2019-04-10T19:35:45.480Z,37.77
2019-04-10T19:38:16.926Z,37.53
2019-04-10T19:40:47.922Z,37.93
2019-04-10T19:43:18.135Z,38.70
2019-04-10T19:45:50.276Z,38.27
2019-04-10T19:48:21.309Z,38.80
2019-04-10T19:50:51.929Z,38.43
2019-04-10T19:53:22.111Z,38.63
2019-04-10T19:55:52.395Z,38.57
2019-04-10T19:58:23.127Z,40.70
2019-04-10T20:00:55.298Z,39.40
2019-04-10T20:03:26.112Z,40.63
2019-04-10T20:05:57.597Z,40.60
2019-04-10T20:08:28.407Z,42.00
2019-04-10T20:11:00.338Z,41.03
2019-04-10T20:13:33.072Z,41.20
2019-04-10T20:16:03.709Z,42.23
2019-04-10T20:18:36.988Z,43.00
2019-04-10T20:21:07.949Z,42.90
2019-04-10T20:23:38.601Z,44.17
2019-04-10T20:26:08.860Z,44.77
2019-04-10T20:28:40.661Z,44.93
2019-04-10T20:31:17.231Z,45.50
2019-04-10T20:33:49.308Z,45.67
2019-04-10T20:36:20.589Z,45.17
2019-04-10T20:38:51.167Z,45.53
2019-04-10T20:41:22.438Z,46.63
2019-04-10T20:43:53.369Z,45.53
2019-04-10T20:46:24.332Z,46.33
2019-04-10T20:48:55.071Z,47.23
2019-04-10T20:51:25.338Z,44.73
2019-04-10T20:53:56.100Z,48.03
2019-04-10T20:56:27.177Z,46.27
2019-04-10T20:58:57.738Z,48.97
2019-04-10T21:01:28.801Z,49.53
2019-04-10T21:03:59.091Z,46.70
2019-04-10T21:06:29.736Z,47.90
2019-04-10T21:09:01.110Z,48.47
2019-04-10T21:11:33.350Z,48.50
2019-04-10T21:14:05.186Z,46.20
2019-04-10T21:16:35.766Z,46.80
2019-04-10T21:19:06.733Z,50.03
2019-04-10T21:21:37.219Z,48.17
2019-04-10T21:24:11.248Z,47.23
2019-04-10T21:26:42.046Z,45.67
2019-04-10T21:29:18.509Z,44.97
2019-04-10T21:32:17.773Z,47.30
2019-04-10T21:34:48.608Z,42.93
2019-04-10T21:37:18.910Z,43.03
2019-04-10T21:39:52.204Z,44.10
2019-04-10T21:42:25.292Z,41.53
2019-04-10T21:44:55.447Z,41.97
2019-04-10T21:47:25.737Z,43.50
2019-04-10T21:49:56.827Z,43.03
2019-04-10T21:52:28.726Z,44.77
2019-04-10T21:55:00.501Z,41.50
2019-04-10T21:57:31.806Z,43.10
2019-04-10T22:00:02.069Z,41.33
2019-04-10T22:02:34.032Z,40.83
2019-04-10T22:05:06.017Z,40.93
2019-04-10T22:07:53.943Z,43.83
2019-04-10T22:10:34.610Z,42.73
2019-04-10T22:13:05.876Z,43.77
2019-04-10T22:15:41.513Z,40.30
2019-04-10T22:18:12.860Z,40.73
2019-04-10T22:20:43.693Z,41.50
2019-04-10T22:23:16.037Z,42.80
2019-04-10T22:25:46.506Z,39.57
2019-04-10T22:28:18.958Z,42.97
2019-04-10T22:30:50.584Z,41.80
2019-04-10T22:33:20.866Z,42.73
2019-04-10T22:35:50.979Z,38.60
2019-04-10T22:38:21.543Z,41.13
2019-04-10T22:40:52.314Z,39.83
2019-04-10T22:43:22.677Z,32.13
2019-04-10T22:45:52.988Z,38.40
2019-04-10T22:48:23.066Z,35.80
2019-04-10T22:50:53.581Z,41.97
2019-04-10T22:53:25.446Z,41.10
2019-04-10T22:55:56.343Z,35.00
2019-04-10T22:58:27.017Z,38.93
2019-04-10T23:00:57.954Z,38.17
2019-04-10T23:03:28.222Z,40.07
2019-04-10T23:05:58.608Z,41.77
2019-04-10T23:08:28.897Z,33.60
2019-04-10T23:10:59.510Z,37.57
2019-04-10T23:13:30.089Z,39.30
2019-04-10T23:16:00.315Z,39.10
2019-04-10T23:18:31.669Z,40.43
2019-04-10T23:21:02.130Z,31.90
2019-04-10T23:23:32.806Z,39.93
2019-04-10T23:26:02.859Z,39.70
2019-04-10T23:28:33.743Z,38.90
2019-04-10T23:31:04.113Z,38.90
2019-04-10T23:33:34.556Z,37.90
2019-04-10T23:36:05.632Z,39.53
2019-04-10T23:38:35.926Z,39.47
2019-04-10T23:41:07.371Z,32.50
2019-04-10T23:43:37.866Z,37.83
2019-04-10T23:46:08.387Z,39.00
2019-04-10T23:48:39.752Z,38.50
2019-04-10T23:51:11.021Z,31.07
2019-04-10T23:53:41.785Z,36.83
2019-04-10T23:56:11.885Z,36.00
2019-04-10T23:58:42.352Z,38.40
